sensor_id;sensor_type;location;lat;lon;timestamp;P1;durP1;ratioP1;P2;durP2;ratioP2
11911;SDS011;6016;41.928;25.556;2023-01-10T00:00:52;36.70;;;15.65;;
11911;SDS011;6016;41.928;25.556;2023-01-10T00:03:19;35.58;;;14.45;;
11911;SDS011;6016;41.928;25.556;2023-01-10T00:05:46;35.35;;;15.68;;
11911;SDS011;6016;41.928;25.556;2023-01-10T00:08:15;30.42;;;13.43;;
11911;SDS011;6016;41.928;25.556;2023-01-10T00:10:42;36.33;;;14.15;;
11911;SDS011;6016;41.928;25.556;2023-01-10T00:13:12;37.03;;;15.50;;
11911;SDS011;6016;41.928;25.556;2023-01-10T00:15:49;34.38;;;14.10;;
11911;SDS011;6016;41.928;25.556;2023-01-10T00:18:16;34.20;;;14.63;;
11911;SDS011;6016;41.928;25.556;2023-01-10T00:20:44;34.28;;;14.55;;
11911;SDS011;6016;41.928;25.556;2023-01-10T00:23:11;28.88;;;13.60;;
11911;SDS011;6016;41.928;25.556;2023-01-10T00:25:40;34.53;;;14.23;;
11911;SDS011;6016;41.928;25.556;2023-01-10T00:28:07;28.77;;;12.77;;
11911;SDS011;6016;41.928;25.556;2023-01-10T00:30:46;32.80;;;13.57;;
11911;SDS011;6016;41.928;25.556;2023-01-10T00:33:14;29.40;;;13.27;;
11911;SDS011;6016;41.928;25.556;2023-01-10T00:35:44;28.70;;;13.60;;
11911;SDS011;6016;41.928;25.556;2023-01-10T00:38:12;28.63;;;14.20;;
11911;SDS011;6016;41.928;25.556;2023-01-10T00:40:40;29.55;;;13.23;;
11911;SDS011;6016;41.928;25.556;2023-01-10T00:43:07;29.25;;;13.60;;
11911;SDS011;6016;41.928;25.556;2023-01-10T00:45:52;28.23;;;12.95;;
11911;SDS011;6016;41.928;25.556;2023-01-10T00:48:19;30.10;;;13.40;;
11911;SDS011;6016;41.928;25.556;2023-01-10T00:50:45;29.02;;;13.63;;
11911;SDS011;6016;41.928;25.556;2023-01-10T00:53:12;27.60;;;13.25;;
11911;SDS011;6016;41.928;25.556;2023-01-10T00:55:40;27.83;;;12.15;;
11911;SDS011;6016;41.928;25.556;2023-01-10T00:58:07;25.45;;;11.13;;
11911;SDS011;6016;41.928;25.556;2023-01-10T01:00:35;25.27;;;12.80;;
11911;SDS011;6016;41.928;25.556;2023-01-10T01:03:02;28.42;;;12.77;;
11911;SDS011;6016;41.928;25.556;2023-01-10T01:05:30;27.13;;;12.85;;
11911;SDS011;6016;41.928;25.556;2023-01-10T01:07:57;27.70;;;12.48;;
11911;SDS011;6016;41.928;25.556;2023-01-10T01:10:24;25.83;;;12.43;;
11911;SDS011;6016;41.928;25.556;2023-01-10T01:12:56;26.23;;;13.27;;
11911;SDS011;6016;41.928;25.556;2023-01-10T01:15:24;26.10;;;12.98;;
11911;SDS011;6016;41.928;25.556;2023-01-10T01:17:52;27.48;;;13.30;;
11911;SDS011;6016;41.928;25.556;2023-01-10T01:20:20;26.33;;;12.68;;
11911;SDS011;6016;41.928;25.556;2023-01-10T01:22:48;27.50;;;13.07;;
11911;SDS011;6016;41.928;25.556;2023-01-10T01:25:15;26.95;;;13.55;;
11911;SDS011;6016;41.928;25.556;2023-01-10T01:27:41;28.15;;;14.18;;
11911;SDS011;6016;41.928;25.556;2023-01-10T01:30:10;30.48;;;14.13;;
11911;SDS011;6016;41.928;25.556;2023-01-10T01:32:38;26.90;;;12.50;;
11911;SDS011;6016;41.928;25.556;2023-01-10T01:35:05;28.27;;;13.57;;
11911;SDS011;6016;41.928;25.556;2023-01-10T01:37:33;30.33;;;13.90;;
11911;SDS011;6016;41.928;25.556;2023-01-10T01:40:00;27.85;;;13.38;;
11911;SDS011;6016;41.928;25.556;2023-01-10T01:42:28;33.20;;;14.48;;
11911;SDS011;6016;41.928;25.556;2023-01-10T01:47:58;29.63;;;13.32;;
11911;SDS011;6016;41.928;25.556;2023-01-10T01:50:33;25.85;;;12.57;;
11911;SDS011;6016;41.928;25.556;2023-01-10T01:53:05;27.88;;;13.73;;
11911;SDS011;6016;41.928;25.556;2023-01-10T01:55:37;27.15;;;13.25;;
11911;SDS011;6016;41.928;25.556;2023-01-10T01:58:05;30.33;;;14.45;;
11911;SDS011;6016;41.928;25.556;2023-01-10T02:00:40;27.80;;;14.18;;
11911;SDS011;6016;41.928;25.556;2023-01-10T02:03:06;31.70;;;15.38;;
11911;SDS011;6016;41.928;25.556;2023-01-10T02:05:34;28.88;;;14.82;;
11911;SDS011;6016;41.928;25.556;2023-01-10T02:08:04;29.88;;;14.60;;
11911;SDS011;6016;41.928;25.556;2023-01-10T02:10:32;29.33;;;14.35;;
11911;SDS011;6016;41.928;25.556;2023-01-10T02:13:04;30.83;;;15.30;;
11911;SDS011;6016;41.928;25.556;2023-01-10T02:15:33;33.65;;;16.83;;
11911;SDS011;6016;41.928;25.556;2023-01-10T02:18:01;31.35;;;15.00;;
11911;SDS011;6016;41.928;25.556;2023-01-10T02:20:29;27.70;;;14.70;;
11911;SDS011;6016;41.928;25.556;2023-01-10T02:23:12;29.83;;;15.00;;
11911;SDS011;6016;41.928;25.556;2023-01-10T02:26:02;30.98;;;14.50;;
11911;SDS011;6016;41.928;25.556;2023-01-10T02:28:57;28.50;;;13.93;;
11911;SDS011;6016;41.928;25.556;2023-01-10T02:34:39;30.63;;;14.25;;
11911;SDS011;6016;41.928;25.556;2023-01-10T02:37:18;31.83;;;15.85;;
11911;SDS011;6016;41.928;25.556;2023-01-10T02:39:54;32.97;;;15.68;;
11911;SDS011;6016;41.928;25.556;2023-01-10T02:42:25;30.08;;;15.55;;
11911;SDS011;6016;41.928;25.556;2023-01-10T02:44:57;32.83;;;15.63;;
11911;SDS011;6016;41.928;25.556;2023-01-10T02:47:35;31.33;;;15.77;;
11911;SDS011;6016;41.928;25.556;2023-01-10T02:50:16;34.60;;;15.80;;
11911;SDS011;6016;41.928;25.556;2023-01-10T02:52:53;29.48;;;14.90;;
11911;SDS011;6016;41.928;25.556;2023-01-10T02:55:21;32.55;;;16.08;;
11911;SDS011;6016;41.928;25.556;2023-01-10T02:58:00;31.08;;;15.57;;
11911;SDS011;6016;41.928;25.556;2023-01-10T03:00:36;35.72;;;16.90;;
11911;SDS011;6016;41.928;25.556;2023-01-10T03:03:13;33.55;;;16.25;;
11911;SDS011;6016;41.928;25.556;2023-01-10T03:05:53;45.00;;;17.77;;
11911;SDS011;6016;41.928;25.556;2023-01-10T03:08:27;42.75;;;17.33;;
11911;SDS011;6016;41.928;25.556;2023-01-10T03:11:00;47.67;;;17.27;;
11911;SDS011;6016;41.928;25.556;2023-01-10T03:13:30;68.22;;;22.90;;
11911;SDS011;6016;41.928;25.556;2023-01-10T03:16:01;70.50;;;23.02;;
11911;SDS011;6016;41.928;25.556;2023-01-10T03:18:35;61.75;;;22.13;;
11911;SDS011;6016;41.928;25.556;2023-01-10T03:21:06;69.18;;;21.83;;
11911;SDS011;6016;41.928;25.556;2023-01-10T03:23:35;78.50;;;24.48;;
11911;SDS011;6016;41.928;25.556;2023-01-10T03:26:04;64.93;;;22.42;;
11911;SDS011;6016;41.928;25.556;2023-01-10T03:28:34;69.57;;;23.95;;
11911;SDS011;6016;41.928;25.556;2023-01-10T03:31:08;81.47;;;25.33;;
11911;SDS011;6016;41.928;25.556;2023-01-10T03:33:40;79.20;;;26.38;;
11911;SDS011;6016;41.928;25.556;2023-01-10T03:36:10;76.88;;;24.52;;
11911;SDS011;6016;41.928;25.556;2023-01-10T03:38:46;76.93;;;25.27;;
11911;SDS011;6016;41.928;25.556;2023-01-10T03:43:51;80.18;;;26.55;;
11911;SDS011;6016;41.928;25.556;2023-01-10T03:46:40;80.03;;;23.80;;
11911;SDS011;6016;41.928;25.556;2023-01-10T03:49:13;86.22;;;24.67;;
11911;SDS011;6016;41.928;25.556;2023-01-10T03:51:41;84.90;;;25.15;;
11911;SDS011;6016;41.928;25.556;2023-01-10T03:54:09;77.38;;;23.90;;
11911;SDS011;6016;41.928;25.556;2023-01-10T03:56:43;71.65;;;23.55;;
11911;SDS011;6016;41.928;25.556;2023-01-10T03:59:11;76.80;;;24.77;;
11911;SDS011;6016;41.928;25.556;2023-01-10T04:01:38;86.63;;;25.33;;
11911;SDS011;6016;41.928;25.556;2023-01-10T04:04:04;89.03;;;26.65;;
11911;SDS011;6016;41.928;25.556;2023-01-10T04:06:33;72.35;;;20.98;;
11911;SDS011;6016;41.928;25.556;2023-01-10T04:09:00;81.45;;;23.70;;
11911;SDS011;6016;41.928;25.556;2023-01-10T04:11:26;82.10;;;23.92;;
11911;SDS011;6016;41.928;25.556;2023-01-10T04:13:53;82.00;;;24.45;;
11911;SDS011;6016;41.928;25.556;2023-01-10T04:16:20;78.82;;;24.35;;
11911;SDS011;6016;41.928;25.556;2023-01-10T04:18:47;80.38;;;24.73;;
11911;SDS011;6016;41.928;25.556;2023-01-10T04:21:14;84.63;;;25.25;;
11911;SDS011;6016;41.928;25.556;2023-01-10T04:23:42;87.07;;;26.35;;
11911;SDS011;6016;41.928;25.556;2023-01-10T04:26:09;84.60;;;24.60;;
11911;SDS011;6016;41.928;25.556;2023-01-10T04:28:36;90.93;;;26.88;;
11911;SDS011;6016;41.928;25.556;2023-01-10T04:31:03;88.53;;;26.27;;
11911;SDS011;6016;41.928;25.556;2023-01-10T04:33:30;99.13;;;28.10;;
11911;SDS011;6016;41.928;25.556;2023-01-10T04:35:57;93.05;;;27.73;;
11911;SDS011;6016;41.928;25.556;2023-01-10T04:38:24;101.82;;;27.27;;
11911;SDS011;6016;41.928;25.556;2023-01-10T04:40:52;98.63;;;28.25;;
11911;SDS011;6016;41.928;25.556;2023-01-10T04:43:20;103.97;;;29.13;;
11911;SDS011;6016;41.928;25.556;2023-01-10T04:45:47;101.25;;;28.20;;
11911;SDS011;6016;41.928;25.556;2023-01-10T04:48:14;99.22;;;29.38;;
11911;SDS011;6016;41.928;25.556;2023-01-10T04:50:41;102.65;;;29.48;;
11911;SDS011;6016;41.928;25.556;2023-01-10T04:53:07;108.38;;;28.52;;
11911;SDS011;6016;41.928;25.556;2023-01-10T04:55:34;113.47;;;28.77;;
11911;SDS011;6016;41.928;25.556;2023-01-10T04:58:02;101.28;;;27.85;;
11911;SDS011;6016;41.928;25.556;2023-01-10T05:00:29;118.35;;;30.25;;
11911;SDS011;6016;41.928;25.556;2023-01-10T05:02:56;100.82;;;28.55;;
11911;SDS011;6016;41.928;25.556;2023-01-10T05:05:23;104.10;;;28.50;;
11911;SDS011;6016;41.928;25.556;2023-01-10T05:07:50;99.32;;;28.52;;
11911;SDS011;6016;41.928;25.556;2023-01-10T05:10:17;100.43;;;27.92;;
11911;SDS011;6016;41.928;25.556;2023-01-10T05:12:44;99.97;;;27.42;;
11911;SDS011;6016;41.928;25.556;2023-01-10T05:15:13;92.63;;;25.38;;
11911;SDS011;6016;41.928;25.556;2023-01-10T05:17:40;112.13;;;31.40;;
11911;SDS011;6016;41.928;25.556;2023-01-10T05:20:07;107.95;;;31.88;;
11911;SDS011;6016;41.928;25.556;2023-01-10T05:22:44;116.18;;;31.00;;
11911;SDS011;6016;41.928;25.556;2023-01-10T05:25:11;104.57;;;28.88;;
11911;SDS011;6016;41.928;25.556;2023-01-10T05:27:39;109.88;;;31.98;;
11911;SDS011;6016;41.928;25.556;2023-01-10T05:30:08;106.90;;;32.03;;
11911;SDS011;6016;41.928;25.556;2023-01-10T05:32:38;121.20;;;32.35;;
11911;SDS011;6016;41.928;25.556;2023-01-10T05:35:05;120.13;;;33.92;;
11911;SDS011;6016;41.928;25.556;2023-01-10T05:37:32;115.15;;;33.40;;
11911;SDS011;6016;41.928;25.556;2023-01-10T05:39:59;118.80;;;33.90;;
11911;SDS011;6016;41.928;25.556;2023-01-10T05:42:26;130.73;;;33.55;;
11911;SDS011;6016;41.928;25.556;2023-01-10T05:44:53;126.50;;;34.45;;
11911;SDS011;6016;41.928;25.556;2023-01-10T05:47:19;122.80;;;31.60;;
11911;SDS011;6016;41.928;25.556;2023-01-10T05:49:48;120.05;;;33.20;;
11911;SDS011;6016;41.928;25.556;2023-01-10T05:52:14;120.50;;;33.30;;
11911;SDS011;6016;41.928;25.556;2023-01-10T05:54:41;124.35;;;37.70;;
11911;SDS011;6016;41.928;25.556;2023-01-10T05:57:09;122.57;;;34.63;;
11911;SDS011;6016;41.928;25.556;2023-01-10T05:59:36;125.25;;;34.72;;
11911;SDS011;6016;41.928;25.556;2023-01-10T06:02:03;136.07;;;37.50;;
11911;SDS011;6016;41.928;25.556;2023-01-10T06:04:29;144.15;;;40.53;;
11911;SDS011;6016;41.928;25.556;2023-01-10T06:06:58;162.68;;;51.25;;
11911;SDS011;6016;41.928;25.556;2023-01-10T06:09:24;139.18;;;38.00;;
11911;SDS011;6016;41.928;25.556;2023-01-10T06:11:51;147.57;;;40.00;;
11911;SDS011;6016;41.928;25.556;2023-01-10T06:14:18;156.38;;;46.08;;
11911;SDS011;6016;41.928;25.556;2023-01-10T06:16:45;162.25;;;46.92;;
11911;SDS011;6016;41.928;25.556;2023-01-10T06:19:12;169.95;;;46.70;;
11911;SDS011;6016;41.928;25.556;2023-01-10T06:21:39;155.55;;;42.30;;
11911;SDS011;6016;41.928;25.556;2023-01-10T06:24:07;156.05;;;41.90;;
11911;SDS011;6016;41.928;25.556;2023-01-10T06:26:35;155.05;;;40.85;;
11911;SDS011;6016;41.928;25.556;2023-01-10T06:29:01;148.55;;;37.97;;
11911;SDS011;6016;41.928;25.556;2023-01-10T06:31:28;147.85;;;39.65;;
11911;SDS011;6016;41.928;25.556;2023-01-10T06:33:55;156.15;;;42.90;;
11911;SDS011;6016;41.928;25.556;2023-01-10T06:36:22;164.25;;;47.35;;
11911;SDS011;6016;41.928;25.556;2023-01-10T06:38:49;163.50;;;47.67;;
11911;SDS011;6016;41.928;25.556;2023-01-10T06:41:18;154.27;;;47.08;;
11911;SDS011;6016;41.928;25.556;2023-01-10T06:43:52;160.75;;;44.50;;
11911;SDS011;6016;41.928;25.556;2023-01-10T06:46:21;154.57;;;44.50;;
11911;SDS011;6016;41.928;25.556;2023-01-10T06:48:48;149.25;;;44.35;;
11911;SDS011;6016;41.928;25.556;2023-01-10T06:51:15;163.07;;;45.45;;
11911;SDS011;6016;41.928;25.556;2023-01-10T06:53:42;147.32;;;46.08;;
11911;SDS011;6016;41.928;25.556;2023-01-10T06:56:09;156.55;;;46.47;;
11911;SDS011;6016;41.928;25.556;2023-01-10T06:58:38;173.50;;;52.67;;
11911;SDS011;6016;41.928;25.556;2023-01-10T07:01:05;168.93;;;47.83;;
11911;SDS011;6016;41.928;25.556;2023-01-10T07:03:35;163.93;;;49.83;;
11911;SDS011;6016;41.928;25.556;2023-01-10T07:06:04;161.70;;;45.42;;
11911;SDS011;6016;41.928;25.556;2023-01-10T07:08:36;171.60;;;48.25;;
11911;SDS011;6016;41.928;25.556;2023-01-10T07:11:06;156.77;;;46.23;;
11911;SDS011;6016;41.928;25.556;2023-01-10T07:13:33;152.50;;;45.53;;
11911;SDS011;6016;41.928;25.556;2023-01-10T07:16:03;153.02;;;46.67;;
11911;SDS011;6016;41.928;25.556;2023-01-10T07:18:34;170.75;;;48.13;;
11911;SDS011;6016;41.928;25.556;2023-01-10T07:21:01;165.40;;;48.50;;
11911;SDS011;6016;41.928;25.556;2023-01-10T07:23:31;161.32;;;48.38;;
11911;SDS011;6016;41.928;25.556;2023-01-10T07:26:01;184.18;;;52.75;;
11911;SDS011;6016;41.928;25.556;2023-01-10T07:28:29;183.07;;;56.97;;
11911;SDS011;6016;41.928;25.556;2023-01-10T07:30:58;209.40;;;61.90;;
11911;SDS011;6016;41.928;25.556;2023-01-10T07:33:30;206.63;;;64.68;;
11911;SDS011;6016;41.928;25.556;2023-01-10T07:35:57;206.13;;;61.42;;
11911;SDS011;6016;41.928;25.556;2023-01-10T07:38:25;207.32;;;62.22;;
11911;SDS011;6016;41.928;25.556;2023-01-10T07:40:52;181.57;;;54.25;;
11911;SDS011;6016;41.928;25.556;2023-01-10T07:43:19;191.98;;;58.40;;
11911;SDS011;6016;41.928;25.556;2023-01-10T07:45:46;168.55;;;52.67;;
11911;SDS011;6016;41.928;25.556;2023-01-10T07:48:18;209.95;;;74.03;;
11911;SDS011;6016;41.928;25.556;2023-01-10T07:50:46;200.57;;;72.88;;
11911;SDS011;6016;41.928;25.556;2023-01-10T07:53:13;225.32;;;74.35;;
11911;SDS011;6016;41.928;25.556;2023-01-10T07:55:40;204.00;;;71.15;;
11911;SDS011;6016;41.928;25.556;2023-01-10T07:58:07;210.32;;;66.82;;
11911;SDS011;6016;41.928;25.556;2023-01-10T08:00:34;196.38;;;66.10;;
11911;SDS011;6016;41.928;25.556;2023-01-10T08:03:01;191.18;;;66.20;;
11911;SDS011;6016;41.928;25.556;2023-01-10T08:05:30;189.10;;;61.28;;
11911;SDS011;6016;41.928;25.556;2023-01-10T08:08:03;168.68;;;53.78;;
11911;SDS011;6016;41.928;25.556;2023-01-10T08:10:31;168.57;;;52.92;;
11911;SDS011;6016;41.928;25.556;2023-01-10T08:12:58;173.15;;;55.05;;
11911;SDS011;6016;41.928;25.556;2023-01-10T08:15:25;172.05;;;58.35;;
11911;SDS011;6016;41.928;25.556;2023-01-10T08:17:52;181.40;;;60.40;;
11911;SDS011;6016;41.928;25.556;2023-01-10T08:20:22;181.27;;;59.58;;
11911;SDS011;6016;41.928;25.556;2023-01-10T08:22:49;165.77;;;55.80;;
11911;SDS011;6016;41.928;25.556;2023-01-10T08:25:17;157.68;;;55.08;;
11911;SDS011;6016;41.928;25.556;2023-01-10T08:27:44;154.63;;;52.25;;
11911;SDS011;6016;41.928;25.556;2023-01-10T08:30:13;144.23;;;46.45;;
11911;SDS011;6016;41.928;25.556;2023-01-10T08:32:43;127.47;;;43.58;;
11911;SDS011;6016;41.928;25.556;2023-01-10T08:35:10;124.78;;;43.40;;
11911;SDS011;6016;41.928;25.556;2023-01-10T08:37:37;116.70;;;38.42;;
11911;SDS011;6016;41.928;25.556;2023-01-10T08:40:06;119.72;;;39.15;;
11911;SDS011;6016;41.928;25.556;2023-01-10T08:42:35;110.70;;;38.15;;
11911;SDS011;6016;41.928;25.556;2023-01-10T08:45:02;109.55;;;36.80;;
11911;SDS011;6016;41.928;25.556;2023-01-10T08:47:31;121.18;;;38.03;;
11911;SDS011;6016;41.928;25.556;2023-01-10T08:49:58;113.95;;;36.40;;
11911;SDS011;6016;41.928;25.556;2023-01-10T08:52:27;125.00;;;39.13;;
11911;SDS011;6016;41.928;25.556;2023-01-10T08:54:54;117.60;;;39.17;;
11911;SDS011;6016;41.928;25.556;2023-01-10T08:57:21;102.32;;;35.58;;
11911;SDS011;6016;41.928;25.556;2023-01-10T08:59:50;91.93;;;33.65;;
11911;SDS011;6016;41.928;25.556;2023-01-10T09:02:17;81.10;;;30.77;;
11911;SDS011;6016;41.928;25.556;2023-01-10T09:04:47;86.00;;;32.67;;
11911;SDS011;6016;41.928;25.556;2023-01-10T09:07:13;78.13;;;30.45;;
11911;SDS011;6016;41.928;25.556;2023-01-10T09:09:40;82.93;;;32.65;;
11911;SDS011;6016;41.928;25.556;2023-01-10T09:12:07;65.53;;;27.15;;
11911;SDS011;6016;41.928;25.556;2023-01-10T09:14:49;48.13;;;21.60;;
11911;SDS011;6016;41.928;25.556;2023-01-10T09:17:16;46.03;;;19.45;;
11911;SDS011;6016;41.928;25.556;2023-01-10T09:19:43;41.38;;;20.05;;
11911;SDS011;6016;41.928;25.556;2023-01-10T09:22:09;39.38;;;18.73;;
11911;SDS011;6016;41.928;25.556;2023-01-10T09:24:36;44.28;;;19.02;;
11911;SDS011;6016;41.928;25.556;2023-01-10T09:27:09;41.95;;;20.30;;
11911;SDS011;6016;41.928;25.556;2023-01-10T09:29:36;42.05;;;18.65;;
11911;SDS011;6016;41.928;25.556;2023-01-10T09:32:04;40.63;;;18.08;;
11911;SDS011;6016;41.928;25.556;2023-01-10T09:34:31;40.20;;;18.58;;
11911;SDS011;6016;41.928;25.556;2023-01-10T09:36:58;38.25;;;18.48;;
11911;SDS011;6016;41.928;25.556;2023-01-10T09:39:25;49.78;;;20.02;;
11911;SDS011;6016;41.928;25.556;2023-01-10T09:41:59;44.75;;;20.02;;
11911;SDS011;6016;41.928;25.556;2023-01-10T09:44:38;43.25;;;19.75;;
11911;SDS011;6016;41.928;25.556;2023-01-10T09:47:17;47.08;;;24.17;;
11911;SDS011;6016;41.928;25.556;2023-01-10T09:49:52;44.15;;;20.42;;
11911;SDS011;6016;41.928;25.556;2023-01-10T09:52:27;41.33;;;19.73;;
11911;SDS011;6016;41.928;25.556;2023-01-10T09:55:01;43.88;;;20.48;;
11911;SDS011;6016;41.928;25.556;2023-01-10T09:57:42;47.72;;;22.17;;
11911;SDS011;6016;41.928;25.556;2023-01-10T10:00:13;42.13;;;19.33;;
11911;SDS011;6016;41.928;25.556;2023-01-10T10:02:44;45.80;;;22.45;;
11911;SDS011;6016;41.928;25.556;2023-01-10T10:05:16;53.10;;;25.65;;
11911;SDS011;6016;41.928;25.556;2023-01-10T10:07:45;43.80;;;20.38;;
11911;SDS011;6016;41.928;25.556;2023-01-10T10:10:21;47.08;;;24.77;;
11911;SDS011;6016;41.928;25.556;2023-01-10T10:12:56;36.35;;;18.05;;
11911;SDS011;6016;41.928;25.556;2023-01-10T10:15:34;41.22;;;19.15;;
11911;SDS011;6016;41.928;25.556;2023-01-10T10:18:12;39.72;;;18.65;;
11911;SDS011;6016;41.928;25.556;2023-01-10T10:20:53;32.63;;;17.50;;
11911;SDS011;6016;41.928;25.556;2023-01-10T10:23:30;37.95;;;17.85;;
11911;SDS011;6016;41.928;25.556;2023-01-10T10:26:16;34.72;;;16.95;;
11911;SDS011;6016;41.928;25.556;2023-01-10T10:32:05;44.17;;;19.63;;
11911;SDS011;6016;41.928;25.556;2023-01-10T10:34:47;41.45;;;19.90;;
11911;SDS011;6016;41.928;25.556;2023-01-10T10:37:18;41.05;;;19.77;;
11911;SDS011;6016;41.928;25.556;2023-01-10T10:39:50;53.05;;;23.27;;
11911;SDS011;6016;41.928;25.556;2023-01-10T10:42:19;45.13;;;23.27;;
11911;SDS011;6016;41.928;25.556;2023-01-10T10:44:46;42.88;;;19.83;;
11911;SDS011;6016;41.928;25.556;2023-01-10T10:47:19;40.15;;;19.83;;
11911;SDS011;6016;41.928;25.556;2023-01-10T10:49:53;47.67;;;20.70;;
11911;SDS011;6016;41.928;25.556;2023-01-10T10:52:26;40.60;;;19.27;;
11911;SDS011;6016;41.928;25.556;2023-01-10T10:54:56;42.92;;;19.70;;
11911;SDS011;6016;41.928;25.556;2023-01-10T10:57:24;42.47;;;20.13;;
11911;SDS011;6016;41.928;25.556;2023-01-10T10:59:54;58.03;;;28.33;;
11911;SDS011;6016;41.928;25.556;2023-01-10T11:02:23;55.35;;;29.60;;
11911;SDS011;6016;41.928;25.556;2023-01-10T11:04:54;52.08;;;26.83;;
11911;SDS011;6016;41.928;25.556;2023-01-10T11:07:23;45.33;;;19.67;;
11911;SDS011;6016;41.928;25.556;2023-01-10T11:09:57;24.25;;;13.00;;
11911;SDS011;6016;41.928;25.556;2023-01-10T11:15:06;25.88;;;13.85;;
11911;SDS011;6016;41.928;25.556;2023-01-10T11:17:34;28.40;;;13.82;;
11911;SDS011;6016;41.928;25.556;2023-01-10T11:20:12;29.55;;;16.92;;
11911;SDS011;6016;41.928;25.556;2023-01-10T11:22:43;34.47;;;19.38;;
11911;SDS011;6016;41.928;25.556;2023-01-10T11:27:43;43.28;;;21.50;;
11911;SDS011;6016;41.928;25.556;2023-01-10T11:30:16;61.50;;;32.85;;
11911;SDS011;6016;41.928;25.556;2023-01-10T11:32:50;59.50;;;32.85;;
11911;SDS011;6016;41.928;25.556;2023-01-10T11:35:21;63.15;;;32.72;;
11911;SDS011;6016;41.928;25.556;2023-01-10T11:40:25;49.90;;;23.30;;
11911;SDS011;6016;41.928;25.556;2023-01-10T11:42:54;61.42;;;27.23;;
11911;SDS011;6016;41.928;25.556;2023-01-10T11:45:23;33.35;;;15.93;;
11911;SDS011;6016;41.928;25.556;2023-01-10T11:47:54;14.48;;;9.23;;
11911;SDS011;6016;41.928;25.556;2023-01-10T11:50:26;19.60;;;8.65;;
11911;SDS011;6016;41.928;25.556;2023-01-10T11:52:54;16.15;;;9.68;;
11911;SDS011;6016;41.928;25.556;2023-01-10T11:55:22;19.33;;;10.25;;
11911;SDS011;6016;41.928;25.556;2023-01-10T11:57:59;20.48;;;11.05;;
11911;SDS011;6016;41.928;25.556;2023-01-10T12:00:29;24.92;;;12.40;;
11911;SDS011;6016;41.928;25.556;2023-01-10T12:02:58;18.88;;;10.63;;
11911;SDS011;6016;41.928;25.556;2023-01-10T12:05:27;19.88;;;11.20;;
11911;SDS011;6016;41.928;25.556;2023-01-10T12:07:56;26.60;;;15.18;;
11911;SDS011;6016;41.928;25.556;2023-01-10T12:10:24;22.00;;;12.60;;
11911;SDS011;6016;41.928;25.556;2023-01-10T12:12:53;23.40;;;12.13;;
11911;SDS011;6016;41.928;25.556;2023-01-10T12:15:23;21.67;;;11.13;;
11911;SDS011;6016;41.928;25.556;2023-01-10T12:17:52;20.10;;;10.05;;
11911;SDS011;6016;41.928;25.556;2023-01-10T12:20:20;40.15;;;18.88;;
11911;SDS011;6016;41.928;25.556;2023-01-10T12:22:50;41.88;;;17.27;;
11911;SDS011;6016;41.928;25.556;2023-01-10T12:25:21;27.20;;;11.18;;
11911;SDS011;6016;41.928;25.556;2023-01-10T12:27:52;22.83;;;12.25;;
11911;SDS011;6016;41.928;25.556;2023-01-10T12:30:23;41.20;;;19.65;;
11911;SDS011;6016;41.928;25.556;2023-01-10T12:32:57;31.52;;;14.77;;
11911;SDS011;6016;41.928;25.556;2023-01-10T12:35:33;37.65;;;20.92;;
11911;SDS011;6016;41.928;25.556;2023-01-10T12:38:09;36.08;;;20.00;;
11911;SDS011;6016;41.928;25.556;2023-01-10T12:40:50;28.33;;;15.40;;
11911;SDS011;6016;41.928;25.556;2023-01-10T12:43:20;23.73;;;14.30;;
11911;SDS011;6016;41.928;25.556;2023-01-10T12:46:13;21.15;;;11.52;;
11911;SDS011;6016;41.928;25.556;2023-01-10T12:48:47;21.52;;;11.38;;
11911;SDS011;6016;41.928;25.556;2023-01-10T12:51:18;20.13;;;9.93;;
11911;SDS011;6016;41.928;25.556;2023-01-10T12:53:51;28.08;;;15.93;;
11911;SDS011;6016;41.928;25.556;2023-01-10T12:56:20;35.50;;;18.77;;
11911;SDS011;6016;41.928;25.556;2023-01-10T12:58:48;40.05;;;20.58;;
11911;SDS011;6016;41.928;25.556;2023-01-10T13:01:20;42.95;;;22.15;;
11911;SDS011;6016;41.928;25.556;2023-01-10T13:03:53;41.95;;;21.52;;
11911;SDS011;6016;41.928;25.556;2023-01-10T13:06:26;42.15;;;22.02;;
11911;SDS011;6016;41.928;25.556;2023-01-10T13:08:57;35.60;;;19.23;;
11911;SDS011;6016;41.928;25.556;2023-01-10T13:11:29;37.70;;;19.13;;
11911;SDS011;6016;41.928;25.556;2023-01-10T13:14:05;42.30;;;21.80;;
11911;SDS011;6016;41.928;25.556;2023-01-10T13:16:41;43.88;;;22.10;;
11911;SDS011;6016;41.928;25.556;2023-01-10T13:19:24;50.53;;;25.27;;
11911;SDS011;6016;41.928;25.556;2023-01-10T13:22:11;74.43;;;34.65;;
11911;SDS011;6016;41.928;25.556;2023-01-10T13:24:54;92.03;;;41.13;;
11911;SDS011;6016;41.928;25.556;2023-01-10T13:27:22;60.63;;;28.17;;
11911;SDS011;6016;41.928;25.556;2023-01-10T13:29:53;49.10;;;25.65;;
11911;SDS011;6016;41.928;25.556;2023-01-10T13:32:20;45.15;;;24.02;;
11911;SDS011;6016;41.928;25.556;2023-01-10T13:34:49;47.05;;;22.83;;
11911;SDS011;6016;41.928;25.556;2023-01-10T13:37:20;44.65;;;22.85;;
11911;SDS011;6016;41.928;25.556;2023-01-10T13:42:27;46.60;;;23.70;;
11911;SDS011;6016;41.928;25.556;2023-01-10T13:48:03;77.75;;;37.15;;
11911;SDS011;6016;41.928;25.556;2023-01-10T13:50:50;92.75;;;43.75;;
11911;SDS011;6016;41.928;25.556;2023-01-10T13:53:42;86.55;;;38.67;;
11911;SDS011;6016;41.928;25.556;2023-01-10T13:56:39;84.97;;;39.42;;
11911;SDS011;6016;41.928;25.556;2023-01-10T13:59:59;106.30;;;50.25;;
11911;SDS011;6016;41.928;25.556;2023-01-10T14:02:33;118.90;;;54.88;;
11911;SDS011;6016;41.928;25.556;2023-01-10T14:05:13;108.68;;;52.30;;
11911;SDS011;6016;41.928;25.556;2023-01-10T14:07:43;107.70;;;52.78;;
11911;SDS011;6016;41.928;25.556;2023-01-10T14:10:17;99.72;;;47.65;;
11911;SDS011;6016;41.928;25.556;2023-01-10T14:12:47;121.35;;;57.05;;
11911;SDS011;6016;41.928;25.556;2023-01-10T14:15:25;109.05;;;51.40;;
11911;SDS011;6016;41.928;25.556;2023-01-10T14:17:54;92.85;;;43.50;;
11911;SDS011;6016;41.928;25.556;2023-01-10T14:20:24;95.38;;;46.15;;
11911;SDS011;6016;41.928;25.556;2023-01-10T14:23:02;99.03;;;46.65;;
11911;SDS011;6016;41.928;25.556;2023-01-10T14:25:32;96.47;;;47.38;;
11911;SDS011;6016;41.928;25.556;2023-01-10T14:28:00;90.90;;;43.55;;
11911;SDS011;6016;41.928;25.556;2023-01-10T14:30:30;128.27;;;62.45;;
11911;SDS011;6016;41.928;25.556;2023-01-10T14:33:00;144.48;;;66.18;;
11911;SDS011;6016;41.928;25.556;2023-01-10T14:35:32;172.32;;;93.05;;
11911;SDS011;6016;41.928;25.556;2023-01-10T14:38:03;132.13;;;66.78;;
11911;SDS011;6016;41.928;25.556;2023-01-10T14:40:34;133.52;;;68.30;;
11911;SDS011;6016;41.928;25.556;2023-01-10T14:43:10;133.82;;;65.72;;
11911;SDS011;6016;41.928;25.556;2023-01-10T14:45:43;149.07;;;74.50;;
11911;SDS011;6016;41.928;25.556;2023-01-10T14:48:26;156.90;;;79.03;;
11911;SDS011;6016;41.928;25.556;2023-01-10T14:53:47;189.20;;;95.80;;
11911;SDS011;6016;41.928;25.556;2023-01-10T14:56:22;181.75;;;91.40;;
11911;SDS011;6016;41.928;25.556;2023-01-10T14:58:50;178.40;;;93.47;;
11911;SDS011;6016;41.928;25.556;2023-01-10T15:01:22;185.35;;;97.05;;
11911;SDS011;6016;41.928;25.556;2023-01-10T15:03:51;224.45;;;110.63;;